Time;durP1;ratioP1;P1;durP2;ratioP2;P2;SDS_P1;SDS_P2;PMS_P1;PMS_P2;Temp;Humidity;BMP_temperature;BMP_pressure;BME280_temperature;BME280_humidity;BME280_pressure;Samples;Min_cycle;Max_cycle;Signal;HPM_P1;HPM_P2
2023/09/07 00:01:10;;;;;;;2.83;2.65;;;;;;;;;;4975497;28;20219;-72
2023/09/07 00:03:40;;;;;;;7.10;2.50;;;;;;;;;;4975500;28;20210;-72
2023/09/07 00:06:06;;;;;;;2.65;2.50;;;;;;;;;;4975368;28;20226;-72
2023/09/07 00:08:34;;;;;;;3.10;2.90;;;;;;;;;;4975738;28;20210;-72
2023/09/07 00:11:03;;;;;;;3.35;3.10;;;;;;;;;;4975634;28;20196;-73
2023/09/07 00:13:29;;;;;;;3.05;2.78;;;;;;;;;;4975308;28;20730;-72
2023/09/07 00:15:59;;;;;;;2.60;2.50;;;;;;;;;;4974889;28;20223;-72
2023/09/07 00:18:25;;;;;;;3.13;2.92;;;;;;;;;;4975312;28;20636;-72
2023/09/07 00:20:51;;;;;;;5.72;3.08;;;;;;;;;;4975494;28;20216;-72
2023/09/07 00:23:19;;;;;;;2.88;2.67;;;;;;;;;;4975271;28;20204;-72
2023/09/07 00:25:47;;;;;;;2.95;2.80;;;;;;;;;;4974909;28;20335;-72
2023/09/07 00:28:13;;;;;;;2.97;2.78;;;;;;;;;;4975179;28;20211;-73
2023/09/07 00:30:40;;;;;;;3.13;2.83;;;;;;;;;;4975042;28;20207;-72
2023/09/07 00:33:06;;;;;;;3.15;3.00;;;;;;;;;;4975139;28;20286;-72
2023/09/07 00:35:33;;;;;;;3.35;3.15;;;;;;;;;;4974894;28;20220;-72
2023/09/07 00:37:59;;;;;;;4.60;2.97;;;;;;;;;;4975035;28;20587;-72
2023/09/07 00:40:26;;;;;;;3.13;2.85;;;;;;;;;;4975003;28;20211;-72
2023/09/07 00:42:54;;;;;;;3.67;3.25;;;;;;;;;;4979373;28;20204;-72
2023/09/07 00:45:20;;;;;;;3.15;2.90;;;;;;;;;;4979858;28;20220;-72
2023/09/07 00:47:46;;;;;;;2.75;2.60;;;;;;;;;;4982782;28;20200;-72
2023/09/07 00:50:14;;;;;;;4.38;2.85;;;;;;;;;;4979689;28;20207;-72
2023/09/07 00:52:41;;;;;;;4.78;3.25;;;;;;;;;;4974944;28;20200;-72
2023/09/07 00:55:08;;;;;;;3.08;2.75;;;;;;;;;;4974112;28;20607;-72
2023/09/07 00:57:35;;;;;;;2.75;2.65;;;;;;;;;;4974913;28;20627;-72
2023/09/07 01:00:03;;;;;;;3.72;3.42;;;;;;;;;;4974439;28;20307;-72
2023/09/07 01:02:31;;;;;;;3.03;2.83;;;;;;;;;;4974482;28;20752;-72
2023/09/07 01:04:57;;;;;;;3.88;3.55;;;;;;;;;;4973910;28;20716;-72
2023/09/07 01:07:25;;;;;;;3.17;3.08;;;;;;;;;;4974284;28;20587;-72
2023/09/07 01:09:53;;;;;;;3.30;3.10;;;;;;;;;;4974047;28;20668;-71
2023/09/07 01:12:19;;;;;;;4.90;3.28;;;;;;;;;;4966473;28;20226;-72
2023/09/07 01:14:46;;;;;;;5.45;2.97;;;;;;;;;;4973731;28;20227;-72
2023/09/07 01:17:14;;;;;;;3.50;3.40;;;;;;;;;;4974368;28;20231;-72
2023/09/07 01:19:41;;;;;;;4.00;3.70;;;;;;;;;;4974269;28;20200;-72
2023/09/07 01:22:08;;;;;;;3.97;3.75;;;;;;;;;;4974268;28;20204;-72
2023/09/07 01:24:35;;;;;;;4.22;3.47;;;;;;;;;;4974548;28;20207;-72
2023/09/07 01:27:03;;;;;;;4.15;3.60;;;;;;;;;;4974667;28;20231;-72
2023/09/07 01:29:29;;;;;;;5.80;3.75;;;;;;;;;;4973893;28;20204;-71
2023/09/07 01:31:55;;;;;;;5.57;4.30;;;;;;;;;;4973817;28;20668;-71
2023/09/07 01:34:22;;;;;;;3.70;3.50;;;;;;;;;;4966128;28;20220;-72
2023/09/07 01:36:48;;;;;;;3.92;3.70;;;;;;;;;;4973967;28;20219;-72
2023/09/07 01:39:16;;;;;;;3.72;3.53;;;;;;;;;;4973672;28;20238;-72
2023/09/07 01:41:43;;;;;;;4.00;3.75;;;;;;;;;;4973606;28;20707;-72
2023/09/07 01:44:09;;;;;;;4.15;3.75;;;;;;;;;;4973926;28;20214;-72
2023/09/07 01:46:35;;;;;;;4.65;3.70;;;;;;;;;;4973573;28;20230;-72
2023/09/07 01:49:02;;;;;;;4.95;4.18;;;;;;;;;;4973683;28;20208;-72
2023/09/07 01:51:28;;;;;;;4.18;3.80;;;;;;;;;;4973830;28;20196;-72
2023/09/07 01:53:54;;;;;;;4.25;3.95;;;;;;;;;;4973539;28;20211;-72
2023/09/07 01:56:22;;;;;;;4.35;3.97;;;;;;;;;;4973323;28;20230;-72
2023/09/07 01:58:48;;;;;;;3.70;3.40;;;;;;;;;;4973602;28;20200;-72
2023/09/07 02:01:21;;;;;;;4.95;4.20;;;;;;;;;;4973078;28;20661;-72
2023/09/07 02:03:47;;;;;;;6.38;3.78;;;;;;;;;;4973224;28;20207;-72
2023/09/07 02:06:14;;;;;;;4.10;3.78;;;;;;;;;;4972968;28;20223;-72
2023/09/07 02:08:40;;;;;;;4.60;4.20;;;;;;;;;;4973072;28;20711;-72
2023/09/07 02:11:06;;;;;;;4.15;3.88;;;;;;;;;;4973023;28;20203;-72
2023/09/07 02:13:34;;;;;;;5.45;3.90;;;;;;;;;;4973199;28;20688;-72
2023/09/07 02:16:04;;;;;;;4.55;4.10;;;;;;;;;;4972976;28;20334;-72
2023/09/07 02:18:30;;;;;;;4.68;4.28;;;;;;;;;;4973111;28;20664;-72
2023/09/07 02:21:01;;;;;;;5.97;3.95;;;;;;;;;;4973240;28;20220;-72
2023/09/07 02:23:27;;;;;;;4.70;4.35;;;;;;;;;;4965128;28;20200;-72
2023/09/07 02:25:54;;;;;;;4.38;4.00;;;;;;;;;;4972539;28;20232;-72
2023/09/07 02:28:20;;;;;;;4.20;4.00;;;;;;;;;;4974662;28;20206;-72
2023/09/07 02:30:47;;;;;;;3.85;3.55;;;;;;;;;;4974075;28;20196;-72
2023/09/07 02:33:14;;;;;;;5.03;4.07;;;;;;;;;;4973098;28;20211;-72
2023/09/07 02:35:40;;;;;;;5.22;4.05;;;;;;;;;;4972451;28;20692;-72
2023/09/07 02:38:06;;;;;;;4.47;4.07;;;;;;;;;;4972696;28;20211;-72
2023/09/07 02:40:33;;;;;;;4.45;4.15;;;;;;;;;;4973020;28;20220;-72
2023/09/07 02:42:59;;;;;;;4.05;3.75;;;;;;;;;;4973016;28;20458;-72
2023/09/07 02:45:25;;;;;;;3.97;3.67;;;;;;;;;;4972341;28;20227;-72
2023/09/07 02:47:53;;;;;;;4.68;4.35;;;;;;;;;;4972592;28;20200;-72
2023/09/07 02:50:19;;;;;;;5.15;3.90;;;;;;;;;;4972839;28;20579;-72
2023/09/07 02:52:45;;;;;;;4.40;4.10;;;;;;;;;;4972757;28;20208;-72
2023/09/07 02:55:11;;;;;;;4.07;3.63;;;;;;;;;;4972443;28;20223;-72
2023/09/07 02:57:38;;;;;;;4.07;3.85;;;;;;;;;;4972758;28;20203;-72
2023/09/07 03:00:09;;;;;;;4.55;4.18;;;;;;;;;;4972601;28;20200;-72
2023/09/07 03:02:35;;;;;;;4.03;3.72;;;;;;;;;;4965361;28;20286;-72
2023/09/07 03:05:03;;;;;;;4.05;3.75;;;;;;;;;;4972326;28;20257;-72
2023/09/07 03:07:31;;;;;;;4.22;3.80;;;;;;;;;;4972892;28;20202;-72
2023/09/07 03:09:57;;;;;;;3.78;3.58;;;;;;;;;;4972495;28;20297;-72
2023/09/07 03:12:23;;;;;;;4.47;3.95;;;;;;;;;;4972409;28;20619;-72
2023/09/07 03:14:50;;;;;;;4.35;4.07;;;;;;;;;;4973930;28;20219;-72
2023/09/07 03:17:17;;;;;;;5.00;4.57;;;;;;;;;;4976280;28;20238;-72
2023/09/07 03:19:43;;;;;;;4.53;4.15;;;;;;;;;;4976445;28;20211;-72
2023/09/07 03:22:11;;;;;;;4.88;3.78;;;;;;;;;;4976370;28;20238;-72
2023/09/07 03:24:37;;;;;;;4.40;4.15;;;;;;;;;;4975956;28;20204;-72
2023/09/07 03:27:04;;;;;;;5.68;4.22;;;;;;;;;;4976118;28;20556;-72
2023/09/07 03:29:33;;;;;;;6.70;4.13;;;;;;;;;;4976126;28;20250;-72
2023/09/07 03:31:59;;;;;;;4.32;4.03;;;;;;;;;;4976256;28;20199;-72
2023/09/07 03:34:26;;;;;;;3.97;3.78;;;;;;;;;;4975669;28;20235;-71
2023/09/07 03:36:52;;;;;;;5.32;4.30;;;;;;;;;;4976312;28;20203;-72
2023/09/07 03:39:22;;;;;;;4.50;4.22;;;;;;;;;;4976154;28;20211;-72
2023/09/07 03:41:48;;;;;;;4.43;4.13;;;;;;;;;;4975849;28;20222;-72
2023/09/07 03:44:14;;;;;;;4.35;3.92;;;;;;;;;;4975864;28;20211;-72
2023/09/07 03:46:41;;;;;;;4.13;3.83;;;;;;;;;;4984611;28;20223;-72
2023/09/07 03:49:07;;;;;;;4.57;4.10;;;;;;;;;;4984111;28;20215;-72
2023/09/07 03:51:33;;;;;;;4.97;4.32;;;;;;;;;;4983647;28;20196;-72
2023/09/07 03:54:00;;;;;;;5.28;4.00;;;;;;;;;;4982519;28;20292;-72
2023/09/07 03:56:28;;;;;;;6.07;4.30;;;;;;;;;;4976022;28;20250;-72
2023/09/07 03:58:54;;;;;;;4.85;4.20;;;;;;;;;;4975866;28;20596;-72
2023/09/07 04:01:20;;;;;;;4.03;3.70;;;;;;;;;;4975666;28;20219;-72
2023/09/07 04:03:46;;;;;;;5.85;4.10;;;;;;;;;;4975961;28;20211;-72
2023/09/07 04:06:13;;;;;;;4.15;3.95;;;;;;;;;;4975366;28;20227;-72
2023/09/07 04:08:39;;;;;;;3.85;3.65;;;;;;;;;;4975335;28;20203;-72
2023/09/07 04:11:06;;;;;;;5.00;3.95;;;;;;;;;;4975372;28;20607;-72
2023/09/07 04:13:33;;;;;;;3.83;3.70;;;;;;;;;;4975334;28;20215;-72
2023/09/07 04:15:59;;;;;;;5.38;4.10;;;;;;;;;;4974789;28;20235;-72
2023/09/07 04:18:26;;;;;;;4.45;4.05;;;;;;;;;;4975652;28;20215;-72
2023/09/07 04:20:52;;;;;;;4.28;3.95;;;;;;;;;;4975375;28;20679;-72
2023/09/07 04:23:18;;;;;;;4.40;4.13;;;;;;;;;;4975072;28;20208;-72
2023/09/07 04:25:44;;;;;;;3.67;3.47;;;;;;;;;;4974568;28;20220;-61
2023/09/07 04:28:11;;;;;;;5.45;4.07;;;;;;;;;;4975110;28;20399;-60
2023/09/07 04:30:39;;;;;;;4.60;4.20;;;;;;;;;;4974745;28;20207;-60
2023/09/07 04:33:06;;;;;;;4.60;4.20;;;;;;;;;;4974966;28;20573;-60
2023/09/07 04:35:33;;;;;;;5.10;4.60;;;;;;;;;;4974528;28;20242;-60
2023/09/07 04:37:59;;;;;;;5.18;4.65;;;;;;;;;;4974991;28;20200;-60
2023/09/07 04:40:26;;;;;;;4.70;4.32;;;;;;;;;;4974806;28;20308;-60
2023/09/07 04:42:52;;;;;;;5.53;5.03;;;;;;;;;;4974809;28;20220;-60
2023/09/07 04:45:18;;;;;;;5.03;4.68;;;;;;;;;;4974324;28;20703;-60
2023/09/07 04:47:46;;;;;;;6.90;4.80;;;;;;;;;;4974604;28;20230;-60
2023/09/07 04:50:13;;;;;;;4.57;4.28;;;;;;;;;;4974735;28;20203;-60
2023/09/07 04:52:39;;;;;;;7.53;4.93;;;;;;;;;;4974317;28;20200;-60
2023/09/07 04:55:06;;;;;;;5.03;4.60;;;;;;;;;;4974137;28;20216;-60
2023/09/07 04:57:32;;;;;;;4.63;4.25;;;;;;;;;;4974348;28;20204;-60
2023/09/07 04:59:58;;;;;;;6.35;4.40;;;;;;;;;;4974527;28;20200;-60
2023/09/07 05:02:25;;;;;;;5.95;4.60;;;;;;;;;;4974379;28;20224;-60
2023/09/07 05:04:53;;;;;;;4.65;4.35;;;;;;;;;;4974022;28;20266;-60
2023/09/07 05:07:19;;;;;;;5.80;5.25;;;;;;;;;;4974195;28;20676;-60
2023/09/07 05:09:45;;;;;;;5.40;5.00;;;;;;;;;;4974028;28;20204;-60
2023/09/07 05:12:11;;;;;;;4.80;4.40;;;;;;;;;;4974020;28;20207;-60
2023/09/07 05:14:38;;;;;;;5.95;4.18;;;;;;;;;;4973995;28;20220;-60
2023/09/07 05:17:04;;;;;;;5.43;5.03;;;;;;;;;;4973976;28;20691;-60
2023/09/07 05:19:30;;;;;;;4.78;4.38;;;;;;;;;;4973825;28;20200;-60
2023/09/07 05:21:58;;;;;;;4.82;4.53;;;;;;;;;;4973852;28;20824;-60
2023/09/07 05:24:24;;;;;;;5.10;4.70;;;;;;;;;;4973650;28;20282;-60
2023/09/07 05:26:51;;;;;;;5.55;5.03;;;;;;;;;;4974015;28;20207;-60
2023/09/07 05:29:17;;;;;;;5.03;4.55;;;;;;;;;;4974205;28;20208;-62
2023/09/07 05:31:43;;;;;;;5.82;4.80;;;;;;;;;;4974128;28;20192;-60
2023/09/07 05:34:09;;;;;;;5.68;5.13;;;;;;;;;;4973939;28;20204;-61
2023/09/07 05:36:36;;;;;;;9.13;5.70;;;;;;;;;;4973160;28;20580;-61
2023/09/07 05:39:03;;;;;;;5.18;4.68;;;;;;;;;;4973595;28;20211;-61
2023/09/07 05:41:30;;;;;;;6.55;5.00;;;;;;;;;;4973449;28;20590;-61
2023/09/07 05:43:56;;;;;;;8.65;5.57;;;;;;;;;;4973914;28;20639;-60
2023/09/07 05:46:22;;;;;;;6.78;5.22;;;;;;;;;;4973565;28;20227;-60
2023/09/07 05:48:49;;;;;;;7.10;5.15;;;;;;;;;;4973732;28;20204;-60
2023/09/07 05:51:15;;;;;;;9.38;5.35;;;;;;;;;;4973659;28;20204;-61
2023/09/07 05:53:41;;;;;;;5.82;5.25;;;;;;;;;;4972905;28;20207;-60
2023/09/07 05:56:09;;;;;;;7.65;5.07;;;;;;;;;;4965536;28;20239;-60
2023/09/07 05:58:35;;;;;;;7.68;5.55;;;;;;;;;;4967517;28;20216;-59
2023/09/07 06:01:01;;;;;;;6.80;5.22;;;;;;;;;;4966133;28;20208;-61
2023/09/07 06:03:28;;;;;;;10.73;5.75;;;;;;;;;;4967714;28;20227;-61
2023/09/07 06:05:54;;;;;;;6.72;5.30;;;;;;;;;;4967256;28;20231;-62
2023/09/07 06:08:20;;;;;;;9.10;5.55;;;;;;;;;;4967854;28;20208;-61
2023/09/07 06:10:47;;;;;;;8.30;5.30;;;;;;;;;;4967702;28;20208;-63
2023/09/07 06:13:15;;;;;;;5.75;5.25;;;;;;;;;;4967545;28;20591;-59
2023/09/07 06:15:41;;;;;;;7.40;5.53;;;;;;;;;;4960076;28;20365;-60
2023/09/07 06:18:07;;;;;;;8.50;5.70;;;;;;;;;;4955035;28;20204;-61
2023/09/07 06:20:35;;;;;;;6.60;5.85;;;;;;;;;;4962678;28;20219;-61
2023/09/07 06:23:01;;;;;;;9.15;6.30;;;;;;;;;;4959965;28;20224;-60
2023/09/07 06:25:27;;;;;;;7.00;5.90;;;;;;;;;;4956903;28;20310;-61
2023/09/07 06:27:54;;;;;;;6.93;6.10;;;;;;;;;;4959933;28;20593;-61
2023/09/07 06:30:21;;;;;;;6.95;5.88;;;;;;;;;;4958894;28;20247;-61
2023/09/07 06:32:48;;;;;;;9.38;6.10;;;;;;;;;;4958644;28;20208;-61
2023/09/07 06:35:14;;;;;;;10.10;6.07;;;;;;;;;;4964532;28;20255;-61
2023/09/07 06:37:43;;;;;;;9.10;5.10;;;;;;;;;;4964394;28;20218;-61
2023/09/07 06:40:10;;;;;;;12.48;6.25;;;;;;;;;;4961704;28;20544;-61
2023/09/07 06:42:36;;;;;;;7.82;6.30;;;;;;;;;;4959593;28;20231;-61
2023/09/07 06:45:03;;;;;;;8.00;6.50;;;;;;;;;;4957252;28;20235;-60
2023/09/07 06:47:31;;;;;;;6.53;5.93;;;;;;;;;;4950764;28;20587;-61
2023/09/07 06:49:57;;;;;;;8.23;6.40;;;;;;;;;;4951431;28;20219;-60
2023/09/07 06:52:23;;;;;;;8.00;6.15;;;;;;;;;;4950560;28;20207;-61
2023/09/07 06:54:51;;;;;;;10.45;5.93;;;;;;;;;;4948819;28;20223;-61
2023/09/07 06:57:18;;;;;;;12.05;6.65;;;;;;;;;;4961194;28;20688;-61
2023/09/07 06:59:44;;;;;;;9.55;5.70;;;;;;;;;;4965774;28;20972;-61
2023/09/07 07:02:10;;;;;;;7.65;6.47;;;;;;;;;;4954291;28;20223;-60
2023/09/07 07:04:38;;;;;;;8.18;6.10;;;;;;;;;;4958524;28;20212;-61
2023/09/07 07:07:05;;;;;;;13.10;6.75;;;;;;;;;;4965754;28;20250;-61
2023/09/07 07:09:31;;;;;;;9.25;6.13;;;;;;;;;;4960259;28;20242;-62
2023/09/07 07:12:00;;;;;;;9.90;6.35;;;;;;;;;;4965945;28;20204;-62
2023/09/07 07:14:26;;;;;;;9.77;6.25;;;;;;;;;;4961235;28;20208;-62
2023/09/07 07:16:52;;;;;;;7.60;6.30;;;;;;;;;;4957442;28;20212;-60
2023/09/07 07:19:19;;;;;;;14.40;6.45;;;;;;;;;;4965251;28;20211;-61
2023/09/07 07:21:46;;;;;;;7.53;6.45;;;;;;;;;;4966041;28;20688;-61
2023/09/07 07:24:12;;;;;;;7.88;6.47;;;;;;;;;;4958628;28;20216;-60
2023/09/07 07:26:39;;;;;;;14.93;6.47;;;;;;;;;;4961918;28;20235;-61
2023/09/07 07:29:05;;;;;;;8.77;6.22;;;;;;;;;;4965773;28;20211;-61
2023/09/07 07:31:32;;;;;;;6.43;5.63;;;;;;;;;;4954607;28;20208;-63
2023/09/07 07:33:58;;;;;;;11.77;6.38;;;;;;;;;;4958763;28;20204;-61
2023/09/07 07:36:25;;;;;;;9.57;6.47;;;;;;;;;;4957983;28;20603;-62
2023/09/07 07:38:52;;;;;;;6.78;5.72;;;;;;;;;;4957949;28;20212;-62
2023/09/07 07:41:18;;;;;;;6.57;5.80;;;;;;;;;;4965531;28;20683;-62
2023/09/07 07:43:45;;;;;;;8.02;5.60;;;;;;;;;;4958211;28;20224;-62
2023/09/07 07:46:11;;;;;;;8.48;5.75;;;;;;;;;;4954771;28;20633;-60
2023/09/07 07:48:37;;;;;;;7.35;5.78;;;;;;;;;;4953140;28;20298;-60
2023/09/07 07:51:05;;;;;;;14.32;6.22;;;;;;;;;;4955376;28;20604;-59
2023/09/07 07:53:31;;;;;;;7.78;6.25;;;;;;;;;;4959022;28;20469;-61
2023/09/07 07:55:59;;;;;;;7.28;6.13;;;;;;;;;;4965139;28;20262;-60
2023/09/07 07:58:25;;;;;;;8.98;5.88;;;;;;;;;;4965385;28;20259;-61
2023/09/07 08:00:51;;;;;;;10.43;6.55;;;;;;;;;;4966829;28;20219;-61
2023/09/07 08:03:18;;;;;;;13.43;6.57;;;;;;;;;;4961906;28;20228;-63
2023/09/07 08:05:44;;;;;;;15.63;6.18;;;;;;;;;;4967891;28;20242;-61
2023/09/07 08:08:11;;;;;;;9.68;5.32;;;;;;;;;;4968610;28;20684;-60
2023/09/07 08:10:37;;;;;;;10.55;6.43;;;;;;;;;;4959608;28;20529;-60
2023/09/07 08:13:06;;;;;;;7.20;5.32;;;;;;;;;;4969074;28;20263;-60
2023/09/07 08:15:32;;;;;;;10.30;6.20;;;;;;;;;;4963040;28;20366;-59
2023/09/07 08:17:59;;;;;;;9.13;6.43;;;;;;;;;;4968075;28;20766;-60
2023/09/07 08:20:25;;;;;;;16.17;5.90;;;;;;;;;;4968680;28;20238;-60
2023/09/07 08:22:52;;;;;;;8.75;5.88;;;;;;;;;;4966891;28;20227;-60
2023/09/07 08:25:20;;;;;;;7.63;5.47;;;;;;;;;;4962606;28;20286;-60
2023/09/07 08:27:47;;;;;;;7.95;5.28;;;;;;;;;;4966675;28;20211;-61
2023/09/07 08:30:17;;;;;;;7.60;5.53;;;;;;;;;;4968329;28;20600;-61
2023/09/07 08:32:44;;;;;;;7.28;5.25;;;;;;;;;;4965510;28;20216;-60
2023/09/07 08:35:12;;;;;;;6.85;5.65;;;;;;;;;;4967716;28;20231;-61
2023/09/07 08:37:39;;;;;;;5.78;5.05;;;;;;;;;;4968553;28;20270;-62
2023/09/07 08:40:08;;;;;;;9.07;5.78;;;;;;;;;;4963014;28;20696;-62
2023/09/07 08:42:36;;;;;;;6.10;5.18;;;;;;;;;;4957264;28;20286;-61
2023/09/07 08:45:06;;;;;;;7.07;4.90;;;;;;;;;;4964696;28;20228;-61
2023/09/07 08:47:33;;;;;;;5.95;5.20;;;;;;;;;;4961499;28;20235;-61
2023/09/07 08:50:00;;;;;;;8.55;4.95;;;;;;;;;;4967633;28;20208;-61
2023/09/07 08:52:26;;;;;;;7.78;5.10;;;;;;;;;;4968109;28;20207;-61
2023/09/07 08:54:53;;;;;;;7.93;4.93;;;;;;;;;;4963179;28;20231;-61
2023/09/07 08:57:19;;;;;;;6.53;4.82;;;;;;;;;;4962157;28;20234;-61
2023/09/07 08:59:45;;;;;;;6.22;5.28;;;;;;;;;;4961558;28;20216;-61
2023/09/07 09:02:12;;;;;;;5.57;4.85;;;;;;;;;;4967157;28;20215;-60
2023/09/07 09:04:40;;;;;;;5.93;5.32;;;;;;;;;;4965489;28;20699;-62
2023/09/07 09:07:06;;;;;;;5.82;5.28;;;;;;;;;;4960024;28;20512;-62
2023/09/07 09:09:32;;;;;;;6.70;5.35;;;;;;;;;;4963149;28;20229;-61
2023/09/07 09:12:07;;;;;;;6.50;5.10;;;;;;;;;;4960353;28;20216;-62
2023/09/07 09:14:33;;;;;;;6.05;5.47;;;;;;;;;;4962033;28;20216;-61
2023/09/07 09:16:59;;;;;;;10.02;4.97;;;;;;;;;;4959048;28;20223;-61
2023/09/07 09:19:31;;;;;;;7.60;4.53;;;;;;;;;;4967204;28;20219;-60
2023/09/07 09:21:59;;;;;;;5.90;5.30;;;;;;;;;;4964564;28;20218;-60
2023/09/07 09:24:25;;;;;;;5.60;5.10;;;;;;;;;;4966021;28;20572;-61
2023/09/07 09:26:51;;;;;;;11.25;4.90;;;;;;;;;;4966888;28;20218;-61
2023/09/07 09:29:17;;;;;;;5.90;4.60;;;;;;;;;;4967979;28;20214;-60
2023/09/07 09:31:44;;;;;;;7.90;5.50;;;;;;;;;;4969862;28;20437;-77
2023/09/07 09:34:11;;;;;;;5.05;4.60;;;;;;;;;;4971711;28;20561;-78
2023/09/07 09:36:37;;;;;;;5.47;4.85;;;;;;;;;;4959912;28;20227;-78
2023/09/07 09:39:06;;;;;;;9.73;4.88;;;;;;;;;;4965755;28;20223;-77
2023/09/07 09:41:33;;;;;;;6.97;5.00;;;;;;;;;;4961845;28;20212;-77
2023/09/07 09:44:00;;;;;;;6.68;4.88;;;;;;;;;;4963324;28;20224;-77
2023/09/07 09:46:27;;;;;;;6.00;5.25;;;;;;;;;;4960925;28;20236;-76
2023/09/07 09:48:55;;;;;;;5.93;4.50;;;;;;;;;;4950447;28;20222;-76
2023/09/07 09:51:21;;;;;;;7.18;4.97;;;;;;;;;;4965587;28;20213;-75
2023/09/07 09:53:49;;;;;;;6.25;5.72;;;;;;;;;;4957996;28;20625;-76
2023/09/07 09:56:17;;;;;;;7.07;5.18;;;;;;;;;;4965119;28;20317;-75
2023/09/07 09:58:43;;;;;;;5.13;4.60;;;;;;;;;;4965515;28;20669;-75
2023/09/07 10:01:10;;;;;;;4.60;4.30;;;;;;;;;;4965417;28;20222;-76
2023/09/07 10:03:44;;;;;;;4.60;4.00;;;;;;;;;;4964855;28;20223;-76
2023/09/07 10:06:11;;;;;;;7.20;4.55;;;;;;;;;;4956747;28;20233;-75
2023/09/07 10:08:37;;;;;;;6.65;4.60;;;;;;;;;;4957515;28;20257;-75
2023/09/07 10:11:08;;;;;;;5.28;4.15;;;;;;;;;;4964954;28;20294;-75
2023/09/07 10:13:36;;;;;;;4.43;4.05;;;;;;;;;;4964889;28;20215;-75
2023/09/07 10:16:04;;;;;;;4.43;3.97;;;;;;;;;;4956018;28;20223;-75
2023/09/07 10:18:33;;;;;;;5.63;4.20;;;;;;;;;;4958850;28;20294;-75
2023/09/07 10:21:02;;;;;;;8.73;4.97;;;;;;;;;;4962726;28;20207;-75
2023/09/07 10:23:35;;;;;;;4.45;4.03;;;;;;;;;;4964159;28;20223;-75
2023/09/07 10:26:04;;;;;;;6.47;4.65;;;;;;;;;;4964174;28;20243;-75
2023/09/07 10:28:30;;;;;;;5.00;4.60;;;;;;;;;;4964227;28;20222;-75
2023/09/07 10:31:03;;;;;;;8.95;3.72;;;;;;;;;;4958110;28;20219;-75
2023/09/07 10:33:29;;;;;;;5.90;3.92;;;;;;;;;;4958679;28;20207;-76
2023/09/07 10:35:56;;;;;;;4.20;3.90;;;;;;;;;;4964362;28;20734;-75
2023/09/07 10:38:23;;;;;;;4.22;3.92;;;;;;;;;;4963026;28;20222;-75
2023/09/07 10:40:57;;;;;;;7.25;4.00;;;;;;;;;;4964399;28;20755;-75
2023/09/07 10:43:23;;;;;;;4.90;4.30;;;;;;;;;;4964221;28;20223;-76
2023/09/07 10:45:49;;;;;;;5.50;4.20;;;;;;;;;;4951478;28;20231;-75
2023/09/07 10:48:17;;;;;;;4.60;4.15;;;;;;;;;;4951128;28;20350;-75
2023/09/07 10:50:44;;;;;;;5.57;4.40;;;;;;;;;;4963336;28;20219;-76
2023/09/07 10:53:12;;;;;;;4.90;4.50;;;;;;;;;;4961226;28;20290;-76
2023/09/07 10:55:39;;;;;;;6.03;4.00;;;;;;;;;;4959132;28;20515;-76
2023/09/07 10:58:06;;;;;;;4.30;4.10;;;;;;;;;;4961179;28;20212;-76
2023/09/07 11:00:32;;;;;;;4.00;3.70;;;;;;;;;;4964145;28;20214;-76
2023/09/07 11:02:59;;;;;;;7.68;3.97;;;;;;;;;;4952049;28;20216;-76
2023/09/07 11:05:26;;;;;;;4.55;3.80;;;;;;;;;;4965429;28;20218;-75
2023/09/07 11:07:53;;;;;;;4.10;3.80;;;;;;;;;;4968465;28;20211;-75
2023/09/07 11:10:20;;;;;;;3.90;3.70;;;;;;;;;;4962066;28;20215;-76
2023/09/07 11:12:47;;;;;;;4.43;4.05;;;;;;;;;;4954298;28;20214;-76
2023/09/07 11:15:13;;;;;;;5.35;3.70;;;;;;;;;;4960703;28;20223;-76
2023/09/07 11:17:40;;;;;;;5.13;4.00;;;;;;;;;;4945105;28;20222;-76
2023/09/07 11:20:07;;;;;;;6.93;3.88;;;;;;;;;;4962390;28;20302;-75
2023/09/07 11:22:35;;;;;;;4.82;4.00;;;;;;;;;;4964320;28;20210;-76
2023/09/07 11:25:01;;;;;;;5.97;4.18;;;;;;;;;;4952955;28;20767;-76
2023/09/07 11:27:29;;;;;;;7.57;3.97;;;;;;;;;;4951098;28;20207;-75
2023/09/07 11:29:56;;;;;;;5.53;3.55;;;;;;;;;;4963945;28;20561;-76
2023/09/07 11:32:22;;;;;;;5.95;4.20;;;;;;;;;;4957060;28;20280;-75
2023/09/07 11:34:50;;;;;;;11.30;3.95;;;;;;;;;;4954938;28;20223;-75
2023/09/07 11:37:17;;;;;;;4.05;3.85;;;;;;;;;;4968266;28;20235;-75
2023/09/07 11:39:44;;;;;;;7.43;3.50;;;;;;;;;;4962352;28;20210;-76
2023/09/07 11:42:11;;;;;;;4.28;3.97;;;;;;;;;;4967612;28;20218;-75
2023/09/07 11:44:37;;;;;;;3.60;3.30;;;;;;;;;;4966572;28;20230;-75
2023/09/07 11:47:04;;;;;;;5.22;3.80;;;;;;;;;;4956495;28;20710;-75
2023/09/07 11:49:31;;;;;;;3.28;3.08;;;;;;;;;;4962837;28;20243;-76
2023/09/07 11:51:58;;;;;;;3.28;2.95;;;;;;;;;;4964513;28;20254;-75
2023/09/07 11:54:24;;;;;;;3.55;3.10;;;;;;;;;;4963840;28;20319;-75
2023/09/07 11:56:51;;;;;;;2.97;2.78;;;;;;;;;;4958098;28;20210;-76
2023/09/07 11:59:18;;;;;;;3.22;3.03;;;;;;;;;;4960331;28;20658;-76
2023/09/07 12:01:44;;;;;;;4.10;3.47;;;;;;;;;;4962400;28;20208;-76
2023/09/07 12:04:10;;;;;;;3.58;3.33;;;;;;;;;;4965232;28;20219;-76
2023/09/07 12:06:37;;;;;;;4.43;3.47;;;;;;;;;;4962878;28;20223;-75
2023/09/07 12:09:04;;;;;;;4.25;3.13;;;;;;;;;;4966815;28;20731;-75
2023/09/07 12:11:30;;;;;;;3.13;3.00;;;;;;;;;;4967052;28;20214;-76
2023/09/07 12:13:58;;;;;;;3.47;3.28;;;;;;;;;;4967060;28;20203;-76
2023/09/07 12:16:26;;;;;;;3.65;3.30;;;;;;;;;;4955940;28;20218;-76
2023/09/07 12:18:52;;;;;;;4.18;3.50;;;;;;;;;;4964301;28;20218;-76
2023/09/07 12:21:18;;;;;;;5.43;3.33;;;;;;;;;;4966723;28;20215;-75
2023/09/07 12:23:44;;;;;;;3.92;3.22;;;;;;;;;;4962307;28;20223;-76
2023/09/07 12:26:11;;;;;;;3.42;3.22;;;;;;;;;;4962539;28;20232;-75
2023/09/07 12:28:37;;;;;;;3.00;2.80;;;;;;;;;;4965346;28;20639;-75
2023/09/07 12:31:05;;;;;;;4.75;3.13;;;;;;;;;;4966445;28;20550;-75
2023/09/07 12:33:32;;;;;;;4.90;3.05;;;;;;;;;;4970265;28;20228;-76
2023/09/07 12:35:59;;;;;;;3.63;3.20;;;;;;;;;;4967589;28;20219;-76
2023/09/07 12:38:28;;;;;;;5.03;3.08;;;;;;;;;;4958612;28;20211;-76
2023/09/07 12:40:54;;;;;;;3.35;3.17;;;;;;;;;;4966828;28;20235;-76
2023/09/07 12:43:20;;;;;;;3.25;3.15;;;;;;;;;;4966397;28;20212;-76
2023/09/07 12:45:47;;;;;;;2.72;2.63;;;;;;;;;;4963963;28;20230;-76
2023/09/07 12:48:15;;;;;;;6.82;3.40;;;;;;;;;;4953441;28;20219;-76
2023/09/07 12:50:42;;;;;;;3.25;3.00;;;;;;;;;;4958221;28;20907;-76
2023/09/07 12:53:09;;;;;;;3.65;2.78;;;;;;;;;;4960884;28;20207;-76
2023/09/07 12:55:35;;;;;;;2.95;2.60;;;;;;;;;;4965420;28;20230;-76
2023/09/07 12:58:01;;;;;;;3.53;3.00;;;;;;;;;;4956845;28;20200;-76
2023/09/07 13:00:28;;;;;;;2.95;2.75;;;;;;;;;;4961725;28;20199;-77
2023/09/07 13:02:55;;;;;;;2.95;2.75;;;;;;;;;;4956714;28;20826;-76
2023/09/07 13:05:23;;;;;;;3.47;3.10;;;;;;;;;;4958289;28;20231;-76
2023/09/07 13:07:49;;;;;;;4.43;2.70;;;;;;;;;;4962678;28;20211;-76
2023/09/07 13:10:15;;;;;;;3.33;2.90;;;;;;;;;;4960177;28;20245;-75
2023/09/07 13:12:42;;;;;;;3.15;2.88;;;;;;;;;;4960486;28;20207;-78
2023/09/07 13:15:09;;;;;;;4.20;3.15;;;;;;;;;;4960233;28;20326;-76
2023/09/07 13:17:35;;;;;;;3.08;2.88;;;;;;;;;;4955222;28;20212;-77
2023/09/07 13:20:01;;;;;;;3.47;2.75;;;;;;;;;;4963942;28;20212;-77
2023/09/07 13:22:29;;;;;;;2.80;2.60;;;;;;;;;;4967828;28;20218;-77
2023/09/07 13:24:55;;;;;;;7.38;3.20;;;;;;;;;;4971418;28;20235;-77
2023/09/07 13:27:21;;;;;;;3.00;2.80;;;;;;;;;;4972252;28;20672;-78
2023/09/07 13:29:48;;;;;;;3.13;3.03;;;;;;;;;;4968973;28;20211;-77
2023/09/07 13:32:14;;;;;;;2.70;2.60;;;;;;;;;;4964141;28;20215;-77
2023/09/07 13:34:40;;;;;;;3.10;2.90;;;;;;;;;;4970492;28;20219;-76
2023/09/07 13:37:06;;;;;;;3.92;2.33;;;;;;;;;;4968863;28;20211;-79
2023/09/07 13:39:34;;;;;;;4.35;2.70;;;;;;;;;;4967587;28;20211;-77
2023/09/07 13:42:00;;;;;;;3.20;2.88;;;;;;;;;;4967471;28;20207;-77
2023/09/07 13:44:27;;;;;;;4.38;3.05;;;;;;;;;;4956729;28;20230;-77
2023/09/07 13:46:54;;;;;;;3.13;2.75;;;;;;;;;;4962672;28;20207;-78
2023/09/07 13:49:21;;;;;;;2.92;2.83;;;;;;;;;;4975278;28;20697;-78
2023/09/07 13:51:47;;;;;;;3.40;3.10;;;;;;;;;;4970283;28;20208;-76
2023/09/07 13:54:13;;;;;;;6.22;2.58;;;;;;;;;;4963403;28;20208;-77
2023/09/07 13:56:42;;;;;;;2.97;2.75;;;;;;;;;;4972727;28;20442;-78
2023/09/07 13:59:08;;;;;;;3.92;2.70;;;;;;;;;;4972142;28;20199;-79
2023/09/07 14:01:34;;;;;;;3.10;2.67;;;;;;;;;;4975014;28;20695;-76
2023/09/07 14:04:00;;;;;;;3.70;2.72;;;;;;;;;;4965960;28;20234;-76
2023/09/07 14:06:27;;;;;;;4.10;2.78;;;;;;;;;;4971420;28;20223;-76
2023/09/07 14:08:53;;;;;;;3.40;2.47;;;;;;;;;;4962979;28;20219;-76
2023/09/07 14:11:19;;;;;;;2.60;2.50;;;;;;;;;;4969252;28;20211;-76
2023/09/07 14:13:49;;;;;;;3.15;2.95;;;;;;;;;;4970025;28;20207;-79
2023/09/07 14:16:15;;;;;;;4.60;2.83;;;;;;;;;;4969670;28;20238;-78
2023/09/07 14:18:42;;;;;;;2.95;2.78;;;;;;;;;;4969206;28;20214;-78
2023/09/07 14:21:08;;;;;;;3.80;2.78;;;;;;;;;;4974605;28;20214;-77
2023/09/07 14:23:34;;;;;;;5.50;3.00;;;;;;;;;;4972735;28;20713;-78
2023/09/07 14:26:00;;;;;;;3.17;2.88;;;;;;;;;;4968996;28;20609;-78
2023/09/07 14:28:27;;;;;;;3.10;2.90;;;;;;;;;;4968023;28;20211;-77
2023/09/07 14:30:54;;;;;;;3.08;2.88;;;;;;;;;;4968570;28;20226;-76
2023/09/07 14:33:21;;;;;;;3.40;3.10;;;;;;;;;;4969382;28;20241;-77
2023/09/07 14:35:51;;;;;;;2.53;2.40;;;;;;;;;;4968911;28;20223;-76
2023/09/07 14:38:17;;;;;;;5.30;3.03;;;;;;;;;;4968672;28;20661;-77
2023/09/07 14:40:45;;;;;;;7.22;2.92;;;;;;;;;;4967766;28;20219;-77